sensor_id;sensor_type;location;lat;lon;timestamp;P1;durP1;ratioP1;P2;durP2;ratioP2
79539;SDS011;68991;52.122;5.406;2023-06-01T00:00:56;3.95;;;2.38;;
79539;SDS011;68991;52.122;5.406;2023-06-01T00:03:22;4.18;;;2.67;;
79539;SDS011;68991;52.122;5.406;2023-06-01T00:05:49;3.35;;;2.05;;
79539;SDS011;68991;52.122;5.406;2023-06-01T00:08:17;4.35;;;2.85;;
79539;SDS011;68991;52.122;5.406;2023-06-01T00:10:43;4.18;;;2.58;;
79539;SDS011;68991;52.122;5.406;2023-06-01T00:13:10;3.83;;;2.30;;
79539;SDS011;68991;52.122;5.406;2023-06-01T00:15:36;4.70;;;2.65;;
79539;SDS011;68991;52.122;5.406;2023-06-01T00:18:02;3.92;;;2.25;;
79539;SDS011;68991;52.122;5.406;2023-06-01T00:20:29;3.63;;;2.25;;
79539;SDS011;68991;52.122;5.406;2023-06-01T00:22:58;3.80;;;2.40;;
79539;SDS011;68991;52.122;5.406;2023-06-01T00:25:28;4.38;;;2.38;;
79539;SDS011;68991;52.122;5.406;2023-06-01T00:27:55;3.72;;;2.10;;
79539;SDS011;68991;52.122;5.406;2023-06-01T00:30:22;5.72;;;2.30;;
79539;SDS011;68991;52.122;5.406;2023-06-01T00:32:48;3.95;;;2.25;;
79539;SDS011;68991;52.122;5.406;2023-06-01T00:35:15;4.05;;;2.25;;
79539;SDS011;68991;52.122;5.406;2023-06-01T00:37:42;3.38;;;2.10;;
79539;SDS011;68991;52.122;5.406;2023-06-01T00:40:08;4.53;;;2.83;;
79539;SDS011;68991;52.122;5.406;2023-06-01T00:42:35;3.03;;;2.55;;
79539;SDS011;68991;52.122;5.406;2023-06-01T00:45:01;3.38;;;2.47;;
79539;SDS011;68991;52.122;5.406;2023-06-01T00:47:28;3.95;;;2.00;;
79539;SDS011;68991;52.122;5.406;2023-06-01T00:49:55;3.80;;;2.33;;
79539;SDS011;68991;52.122;5.406;2023-06-01T00:52:22;5.72;;;2.22;;
79539;SDS011;68991;52.122;5.406;2023-06-01T00:54:49;4.10;;;2.40;;
79539;SDS011;68991;52.122;5.406;2023-06-01T00:57:16;4.05;;;2.08;;
79539;SDS011;68991;52.122;5.406;2023-06-01T00:59:43;3.70;;;2.35;;
79539;SDS011;68991;52.122;5.406;2023-06-01T01:02:09;4.63;;;2.20;;
79539;SDS011;68991;52.122;5.406;2023-06-01T01:04:39;3.80;;;2.00;;
79539;SDS011;68991;52.122;5.406;2023-06-01T01:07:09;2.65;;;2.08;;
79539;SDS011;68991;52.122;5.406;2023-06-01T01:09:53;4.20;;;2.13;;
79539;SDS011;68991;52.122;5.406;2023-06-01T01:12:26;3.20;;;2.00;;
79539;SDS011;68991;52.122;5.406;2023-06-01T01:15:01;3.88;;;1.85;;
79539;SDS011;68991;52.122;5.406;2023-06-01T01:17:38;4.38;;;2.00;;
79539;SDS011;68991;52.122;5.406;2023-06-01T01:20:11;4.68;;;2.13;;
79539;SDS011;68991;52.122;5.406;2023-06-01T01:22:56;3.15;;;1.98;;
79539;SDS011;68991;52.122;5.406;2023-06-01T01:31:09;2.97;;;2.17;;
79539;SDS011;68991;52.122;5.406;2023-06-01T01:33:39;4.63;;;1.80;;
79539;SDS011;68991;52.122;5.406;2023-06-01T01:36:08;4.13;;;1.90;;
79539;SDS011;68991;52.122;5.406;2023-06-01T01:38:36;3.55;;;1.85;;
79539;SDS011;68991;52.122;5.406;2023-06-01T01:41:03;3.17;;;2.25;;
79539;SDS011;68991;52.122;5.406;2023-06-01T01:43:30;3.15;;;2.03;;
79539;SDS011;68991;52.122;5.406;2023-06-01T01:45:59;4.45;;;2.17;;
79539;SDS011;68991;52.122;5.406;2023-06-01T01:48:42;4.57;;;2.58;;
79539;SDS011;68991;52.122;5.406;2023-06-01T01:51:19;3.60;;;2.15;;
79539;SDS011;68991;52.122;5.406;2023-06-01T01:53:50;2.88;;;1.85;;
79539;SDS011;68991;52.122;5.406;2023-06-01T01:56:18;3.15;;;2.05;;
79539;SDS011;68991;52.122;5.406;2023-06-01T01:58:46;4.05;;;2.20;;
79539;SDS011;68991;52.122;5.406;2023-06-01T02:01:14;3.25;;;1.90;;
79539;SDS011;68991;52.122;5.406;2023-06-01T02:03:41;3.55;;;1.90;;
79539;SDS011;68991;52.122;5.406;2023-06-01T02:06:08;4.72;;;2.20;;
79539;SDS011;68991;52.122;5.406;2023-06-01T02:08:34;3.53;;;1.70;;
79539;SDS011;68991;52.122;5.406;2023-06-01T02:11:01;2.80;;;1.92;;
79539;SDS011;68991;52.122;5.406;2023-06-01T02:13:27;3.20;;;2.25;;
79539;SDS011;68991;52.122;5.406;2023-06-01T02:15:54;3.25;;;1.98;;
79539;SDS011;68991;52.122;5.406;2023-06-01T02:18:21;3.30;;;1.80;;
79539;SDS011;68991;52.122;5.406;2023-06-01T02:20:47;4.57;;;1.80;;
79539;SDS011;68991;52.122;5.406;2023-06-01T02:23:13;3.13;;;1.85;;
79539;SDS011;68991;52.122;5.406;2023-06-01T02:25:40;2.97;;;2.03;;
79539;SDS011;68991;52.122;5.406;2023-06-01T02:28:06;2.60;;;1.65;;
79539;SDS011;68991;52.122;5.406;2023-06-01T02:30:33;2.85;;;1.90;;
79539;SDS011;68991;52.122;5.406;2023-06-01T02:33:00;4.65;;;1.90;;
79539;SDS011;68991;52.122;5.406;2023-06-01T02:35:26;4.00;;;1.83;;
79539;SDS011;68991;52.122;5.406;2023-06-01T02:37:52;3.78;;;1.73;;
79539;SDS011;68991;52.122;5.406;2023-06-01T02:40:19;3.22;;;1.75;;
79539;SDS011;68991;52.122;5.406;2023-06-01T02:42:45;3.63;;;1.70;;
79539;SDS011;68991;52.122;5.406;2023-06-01T02:45:12;3.15;;;1.80;;
79539;SDS011;68991;52.122;5.406;2023-06-01T02:47:38;3.00;;;1.95;;
79539;SDS011;68991;52.122;5.406;2023-06-01T02:50:05;4.25;;;1.90;;
79539;SDS011;68991;52.122;5.406;2023-06-01T02:52:32;3.70;;;2.30;;
79539;SDS011;68991;52.122;5.406;2023-06-01T02:54:58;4.32;;;1.95;;
79539;SDS011;68991;52.122;5.406;2023-06-01T02:57:25;3.22;;;1.70;;
79539;SDS011;68991;52.122;5.406;2023-06-01T02:59:51;2.58;;;1.60;;
79539;SDS011;68991;52.122;5.406;2023-06-01T03:02:18;3.25;;;1.90;;
79539;SDS011;68991;52.122;5.406;2023-06-01T03:04:44;3.33;;;2.33;;
79539;SDS011;68991;52.122;5.406;2023-06-01T03:07:11;3.22;;;1.90;;
79539;SDS011;68991;52.122;5.406;2023-06-01T03:09:39;3.22;;;1.90;;
79539;SDS011;68991;52.122;5.406;2023-06-01T03:12:05;3.45;;;1.75;;
79539;SDS011;68991;52.122;5.406;2023-06-01T03:14:32;2.92;;;1.75;;
79539;SDS011;68991;52.122;5.406;2023-06-01T03:16:59;4.95;;;2.10;;
79539;SDS011;68991;52.122;5.406;2023-06-01T03:19:25;3.63;;;2.53;;
79539;SDS011;68991;52.122;5.406;2023-06-01T03:21:52;3.70;;;2.10;;
79539;SDS011;68991;52.122;5.406;2023-06-01T03:24:18;3.55;;;1.95;;
79539;SDS011;68991;52.122;5.406;2023-06-01T03:26:44;3.95;;;2.08;;
79539;SDS011;68991;52.122;5.406;2023-06-01T03:29:11;3.15;;;1.77;;
79539;SDS011;68991;52.122;5.406;2023-06-01T03:31:37;4.75;;;2.20;;
79539;SDS011;68991;52.122;5.406;2023-06-01T03:34:04;3.50;;;1.90;;
79539;SDS011;68991;52.122;5.406;2023-06-01T03:36:30;3.97;;;1.95;;
79539;SDS011;68991;52.122;5.406;2023-06-01T03:38:57;2.75;;;1.70;;
79539;SDS011;68991;52.122;5.406;2023-06-01T03:41:24;2.65;;;1.70;;
79539;SDS011;68991;52.122;5.406;2023-06-01T03:43:51;3.17;;;2.20;;
79539;SDS011;68991;52.122;5.406;2023-06-01T03:46:17;4.32;;;1.98;;
79539;SDS011;68991;52.122;5.406;2023-06-01T03:48:44;3.55;;;1.80;;
79539;SDS011;68991;52.122;5.406;2023-06-01T03:51:10;2.63;;;1.58;;
79539;SDS011;68991;52.122;5.406;2023-06-01T03:53:37;4.18;;;1.88;;
79539;SDS011;68991;52.122;5.406;2023-06-01T03:56:03;5.20;;;2.25;;
79539;SDS011;68991;52.122;5.406;2023-06-01T03:58:30;10.80;;;2.20;;
79539;SDS011;68991;52.122;5.406;2023-06-01T04:00:57;3.30;;;2.10;;
79539;SDS011;68991;52.122;5.406;2023-06-01T04:03:24;2.85;;;1.85;;
79539;SDS011;68991;52.122;5.406;2023-06-01T04:05:52;4.07;;;2.08;;
79539;SDS011;68991;52.122;5.406;2023-06-01T04:08:25;4.45;;;2.22;;
79539;SDS011;68991;52.122;5.406;2023-06-01T04:10:52;3.42;;;1.85;;
79539;SDS011;68991;52.122;5.406;2023-06-01T04:13:19;5.03;;;1.88;;
79539;SDS011;68991;52.122;5.406;2023-06-01T04:15:46;3.53;;;1.88;;
79539;SDS011;68991;52.122;5.406;2023-06-01T04:18:13;5.57;;;1.90;;
79539;SDS011;68991;52.122;5.406;2023-06-01T04:20:39;2.67;;;1.70;;
79539;SDS011;68991;52.122;5.406;2023-06-01T04:23:06;5.15;;;2.30;;
79539;SDS011;68991;52.122;5.406;2023-06-01T04:25:32;2.90;;;1.80;;
79539;SDS011;68991;52.122;5.406;2023-06-01T04:27:59;2.90;;;1.75;;
79539;SDS011;68991;52.122;5.406;2023-06-01T04:30:25;3.45;;;2.20;;
79539;SDS011;68991;52.122;5.406;2023-06-01T04:32:52;3.35;;;2.20;;
79539;SDS011;68991;52.122;5.406;2023-06-01T04:35:20;4.25;;;2.08;;
79539;SDS011;68991;52.122;5.406;2023-06-01T04:37:46;2.92;;;1.92;;
79539;SDS011;68991;52.122;5.406;2023-06-01T04:40:13;7.50;;;2.03;;
79539;SDS011;68991;52.122;5.406;2023-06-01T04:42:41;6.05;;;2.20;;
79539;SDS011;68991;52.122;5.406;2023-06-01T04:45:09;3.92;;;2.13;;
79539;SDS011;68991;52.122;5.406;2023-06-01T04:47:36;6.57;;;2.47;;
79539;SDS011;68991;52.122;5.406;2023-06-01T04:50:07;4.00;;;2.30;;
79539;SDS011;68991;52.122;5.406;2023-06-01T04:52:36;3.28;;;2.03;;
79539;SDS011;68991;52.122;5.406;2023-06-01T04:55:06;3.20;;;1.90;;
79539;SDS011;68991;52.122;5.406;2023-06-01T04:57:34;3.85;;;2.10;;
79539;SDS011;68991;52.122;5.406;2023-06-01T05:00:02;3.08;;;2.08;;
79539;SDS011;68991;52.122;5.406;2023-06-01T05:02:44;9.98;;;5.50;;
79539;SDS011;68991;52.122;5.406;2023-06-01T05:05:14;6.93;;;4.40;;
79539;SDS011;68991;52.122;5.406;2023-06-01T05:07:41;7.55;;;3.83;;
79539;SDS011;68991;52.122;5.406;2023-06-01T05:10:09;8.20;;;4.35;;
79539;SDS011;68991;52.122;5.406;2023-06-01T05:12:37;7.35;;;3.45;;
79539;SDS011;68991;52.122;5.406;2023-06-01T05:15:04;6.65;;;3.88;;
79539;SDS011;68991;52.122;5.406;2023-06-01T05:17:33;7.20;;;3.10;;
79539;SDS011;68991;52.122;5.406;2023-06-01T05:19:59;6.13;;;3.30;;
79539;SDS011;68991;52.122;5.406;2023-06-01T05:22:26;6.68;;;3.13;;
79539;SDS011;68991;52.122;5.406;2023-06-01T05:24:52;8.15;;;3.40;;
79539;SDS011;68991;52.122;5.406;2023-06-01T05:27:19;5.85;;;2.97;;
79539;SDS011;68991;52.122;5.406;2023-06-01T05:29:45;7.53;;;3.25;;
79539;SDS011;68991;52.122;5.406;2023-06-01T05:32:12;4.63;;;2.92;;
79539;SDS011;68991;52.122;5.406;2023-06-01T05:34:38;5.20;;;2.92;;
79539;SDS011;68991;52.122;5.406;2023-06-01T05:37:05;5.40;;;2.65;;
79539;SDS011;68991;52.122;5.406;2023-06-01T05:39:31;4.97;;;2.75;;
79539;SDS011;68991;52.122;5.406;2023-06-01T05:41:58;4.82;;;2.40;;
79539;SDS011;68991;52.122;5.406;2023-06-01T05:44:24;6.70;;;2.70;;
79539;SDS011;68991;52.122;5.406;2023-06-01T05:46:51;6.60;;;3.00;;
79539;SDS011;68991;52.122;5.406;2023-06-01T05:49:19;6.20;;;2.67;;
79539;SDS011;68991;52.122;5.406;2023-06-01T05:51:45;4.70;;;2.78;;
79539;SDS011;68991;52.122;5.406;2023-06-01T05:54:12;3.78;;;2.50;;
79539;SDS011;68991;52.122;5.406;2023-06-01T05:56:38;5.97;;;2.78;;
79539;SDS011;68991;52.122;5.406;2023-06-01T05:59:08;4.35;;;2.53;;
79539;SDS011;68991;52.122;5.406;2023-06-01T06:01:34;4.35;;;2.53;;
79539;SDS011;68991;52.122;5.406;2023-06-01T06:04:02;6.32;;;3.17;;
79539;SDS011;68991;52.122;5.406;2023-06-01T06:06:29;8.63;;;4.72;;
79539;SDS011;68991;52.122;5.406;2023-06-01T06:08:58;6.57;;;3.95;;
79539;SDS011;68991;52.122;5.406;2023-06-01T06:11:24;7.80;;;4.65;;
79539;SDS011;68991;52.122;5.406;2023-06-01T06:13:53;8.90;;;4.53;;
79539;SDS011;68991;52.122;5.406;2023-06-01T06:16:19;7.47;;;4.03;;
79539;SDS011;68991;52.122;5.406;2023-06-01T06:18:46;7.03;;;4.25;;
79539;SDS011;68991;52.122;5.406;2023-06-01T06:21:13;6.32;;;4.18;;
79539;SDS011;68991;52.122;5.406;2023-06-01T06:26:11;8.90;;;4.28;;
79539;SDS011;68991;52.122;5.406;2023-06-01T06:28:37;7.03;;;3.97;;
79539;SDS011;68991;52.122;5.406;2023-06-01T06:31:03;6.70;;;3.40;;
79539;SDS011;68991;52.122;5.406;2023-06-01T06:33:30;4.85;;;3.50;;
79539;SDS011;68991;52.122;5.406;2023-06-01T06:35:56;6.65;;;3.85;;
79539;SDS011;68991;52.122;5.406;2023-06-01T06:38:23;7.13;;;3.60;;
79539;SDS011;68991;52.122;5.406;2023-06-01T06:40:49;8.05;;;3.50;;
79539;SDS011;68991;52.122;5.406;2023-06-01T06:43:17;8.65;;;3.25;;
79539;SDS011;68991;52.122;5.406;2023-06-01T06:45:44;8.27;;;3.60;;
79539;SDS011;68991;52.122;5.406;2023-06-01T06:48:10;9.10;;;3.50;;
79539;SDS011;68991;52.122;5.406;2023-06-01T06:50:37;5.15;;;2.90;;
79539;SDS011;68991;52.122;5.406;2023-06-01T06:53:03;5.22;;;3.22;;
79539;SDS011;68991;52.122;5.406;2023-06-01T06:55:30;5.22;;;3.13;;
79539;SDS011;68991;52.122;5.406;2023-06-01T06:57:57;5.95;;;3.08;;
79539;SDS011;68991;52.122;5.406;2023-06-01T07:00:23;5.72;;;3.33;;
79539;SDS011;68991;52.122;5.406;2023-06-01T07:02:50;5.50;;;3.10;;
79539;SDS011;68991;52.122;5.406;2023-06-01T07:05:17;6.45;;;3.42;;
79539;SDS011;68991;52.122;5.406;2023-06-01T07:07:43;6.22;;;3.58;;
79539;SDS011;68991;52.122;5.406;2023-06-01T07:10:10;5.20;;;2.78;;
79539;SDS011;68991;52.122;5.406;2023-06-01T07:12:36;6.30;;;3.10;;
79539;SDS011;68991;52.122;5.406;2023-06-01T07:15:03;7.40;;;3.45;;
79539;SDS011;68991;52.122;5.406;2023-06-01T07:17:31;5.85;;;3.03;;
79539;SDS011;68991;52.122;5.406;2023-06-01T07:19:57;5.95;;;3.53;;
79539;SDS011;68991;52.122;5.406;2023-06-01T07:22:25;5.03;;;3.13;;
79539;SDS011;68991;52.122;5.406;2023-06-01T07:24:52;5.82;;;3.30;;
79539;SDS011;68991;52.122;5.406;2023-06-01T07:27:18;5.38;;;3.22;;
79539;SDS011;68991;52.122;5.406;2023-06-01T07:29:46;6.32;;;3.42;;
79539;SDS011;68991;52.122;5.406;2023-06-01T07:32:12;5.55;;;2.83;;
79539;SDS011;68991;52.122;5.406;2023-06-01T07:34:39;5.20;;;2.83;;
79539;SDS011;68991;52.122;5.406;2023-06-01T07:37:06;5.97;;;3.30;;
79539;SDS011;68991;52.122;5.406;2023-06-01T07:39:43;5.60;;;3.28;;
79539;SDS011;68991;52.122;5.406;2023-06-01T07:42:09;6.50;;;2.97;;
79539;SDS011;68991;52.122;5.406;2023-06-01T07:44:36;5.82;;;3.63;;
79539;SDS011;68991;52.122;5.406;2023-06-01T07:47:03;5.05;;;3.60;;
79539;SDS011;68991;52.122;5.406;2023-06-01T07:49:29;5.75;;;2.88;;
79539;SDS011;68991;52.122;5.406;2023-06-01T07:51:56;6.32;;;3.30;;
79539;SDS011;68991;52.122;5.406;2023-06-01T07:54:24;4.57;;;2.60;;
79539;SDS011;68991;52.122;5.406;2023-06-01T07:56:51;6.93;;;3.10;;
79539;SDS011;68991;52.122;5.406;2023-06-01T07:59:17;4.93;;;2.67;;
79539;SDS011;68991;52.122;5.406;2023-06-01T08:01:44;5.95;;;3.10;;
79539;SDS011;68991;52.122;5.406;2023-06-01T08:04:10;6.70;;;2.88;;
79539;SDS011;68991;52.122;5.406;2023-06-01T08:06:37;6.40;;;3.53;;
79539;SDS011;68991;52.122;5.406;2023-06-01T08:09:04;5.72;;;2.80;;
79539;SDS011;68991;52.122;5.406;2023-06-01T08:11:31;5.22;;;2.92;;
79539;SDS011;68991;52.122;5.406;2023-06-01T08:13:58;6.63;;;3.05;;
79539;SDS011;68991;52.122;5.406;2023-06-01T08:16:29;5.10;;;2.80;;
79539;SDS011;68991;52.122;5.406;2023-06-01T08:18:56;4.70;;;3.20;;
79539;SDS011;68991;52.122;5.406;2023-06-01T08:21:24;4.82;;;2.70;;
79539;SDS011;68991;52.122;5.406;2023-06-01T08:23:52;5.85;;;2.53;;
79539;SDS011;68991;52.122;5.406;2023-06-01T08:26:24;5.10;;;2.75;;
79539;SDS011;68991;52.122;5.406;2023-06-01T08:28:51;5.05;;;2.92;;
79539;SDS011;68991;52.122;5.406;2023-06-01T08:31:19;4.18;;;2.65;;
79539;SDS011;68991;52.122;5.406;2023-06-01T08:33:47;6.60;;;2.90;;
79539;SDS011;68991;52.122;5.406;2023-06-01T08:36:14;5.40;;;2.47;;
79539;SDS011;68991;52.122;5.406;2023-06-01T08:38:41;4.93;;;2.60;;
79539;SDS011;68991;52.122;5.406;2023-06-01T08:41:14;4.45;;;2.67;;
79539;SDS011;68991;52.122;5.406;2023-06-01T08:43:48;5.68;;;2.60;;
79539;SDS011;68991;52.122;5.406;2023-06-01T08:46:31;4.38;;;2.63;;
79539;SDS011;68991;52.122;5.406;2023-06-01T08:48:59;5.00;;;2.60;;
79539;SDS011;68991;52.122;5.406;2023-06-01T08:51:26;4.47;;;2.40;;
79539;SDS011;68991;52.122;5.406;2023-06-01T08:53:53;4.53;;;2.38;;
79539;SDS011;68991;52.122;5.406;2023-06-01T08:56:23;4.68;;;2.40;;
79539;SDS011;68991;52.122;5.406;2023-06-01T08:58:49;4.63;;;2.65;;
79539;SDS011;68991;52.122;5.406;2023-06-01T09:01:18;4.40;;;3.17;;
79539;SDS011;68991;52.122;5.406;2023-06-01T09:03:48;4.30;;;2.60;;
79539;SDS011;68991;52.122;5.406;2023-06-01T09:06:15;3.75;;;3.05;;
79539;SDS011;68991;52.122;5.406;2023-06-01T09:08:41;5.38;;;2.58;;
79539;SDS011;68991;52.122;5.406;2023-06-01T09:11:08;6.00;;;3.13;;
79539;SDS011;68991;52.122;5.406;2023-06-01T09:13:38;4.13;;;2.25;;
79539;SDS011;68991;52.122;5.406;2023-06-01T09:16:06;4.28;;;2.80;;
79539;SDS011;68991;52.122;5.406;2023-06-01T09:18:33;5.90;;;3.28;;
79539;SDS011;68991;52.122;5.406;2023-06-01T09:21:10;5.45;;;2.60;;
79539;SDS011;68991;52.122;5.406;2023-06-01T09:23:37;6.30;;;2.63;;
79539;SDS011;68991;52.122;5.406;2023-06-01T09:26:09;4.38;;;2.78;;
79539;SDS011;68991;52.122;5.406;2023-06-01T09:31:41;3.45;;;2.15;;
79539;SDS011;68991;52.122;5.406;2023-06-01T09:34:08;4.60;;;2.33;;
79539;SDS011;68991;52.122;5.406;2023-06-01T09:36:37;5.45;;;2.60;;
79539;SDS011;68991;52.122;5.406;2023-06-01T09:39:05;7.72;;;2.65;;
79539;SDS011;68991;52.122;5.406;2023-06-01T09:41:46;4.55;;;2.60;;
79539;SDS011;68991;52.122;5.406;2023-06-01T09:44:34;4.05;;;2.00;;
79539;SDS011;68991;52.122;5.406;2023-06-01T09:47:02;4.38;;;2.65;;
79539;SDS011;68991;52.122;5.406;2023-06-01T09:49:36;5.55;;;2.65;;
79539;SDS011;68991;52.122;5.406;2023-06-01T09:54:32;5.13;;;2.40;;
79539;SDS011;68991;52.122;5.406;2023-06-01T09:57:04;4.25;;;2.40;;
79539;SDS011;68991;52.122;5.406;2023-06-01T09:59:46;5.45;;;2.90;;
79539;SDS011;68991;52.122;5.406;2023-06-01T10:02:17;5.10;;;2.83;;
79539;SDS011;68991;52.122;5.406;2023-06-01T10:04:53;4.45;;;2.38;;
79539;SDS011;68991;52.122;5.406;2023-06-01T10:07:22;4.95;;;2.38;;
79539;SDS011;68991;52.122;5.406;2023-06-01T10:09:56;6.85;;;2.58;;
79539;SDS011;68991;52.122;5.406;2023-06-01T10:12:25;5.47;;;2.40;;
79539;SDS011;68991;52.122;5.406;2023-06-01T10:14:53;4.22;;;2.50;;
79539;SDS011;68991;52.122;5.406;2023-06-01T10:17:21;4.13;;;2.42;;
79539;SDS011;68991;52.122;5.406;2023-06-01T10:19:48;3.47;;;2.10;;
79539;SDS011;68991;52.122;5.406;2023-06-01T10:22:15;5.47;;;2.92;;
79539;SDS011;68991;52.122;5.406;2023-06-01T10:24:42;4.95;;;2.20;;
79539;SDS011;68991;52.122;5.406;2023-06-01T10:30:01;3.00;;;1.95;;
79539;SDS011;68991;52.122;5.406;2023-06-01T10:35:04;4.25;;;2.10;;
79539;SDS011;68991;52.122;5.406;2023-06-01T10:37:31;3.85;;;2.67;;
79539;SDS011;68991;52.122;5.406;2023-06-01T10:42:43;3.90;;;2.40;;
79539;SDS011;68991;52.122;5.406;2023-06-01T10:48:02;4.05;;;1.90;;
79539;SDS011;68991;52.122;5.406;2023-06-01T10:50:29;3.08;;;1.92;;
79539;SDS011;68991;52.122;5.406;2023-06-01T10:52:56;3.38;;;2.03;;
79539;SDS011;68991;52.122;5.406;2023-06-01T10:55:43;5.45;;;2.40;;
79539;SDS011;68991;52.122;5.406;2023-06-01T10:58:18;3.42;;;2.28;;
79539;SDS011;68991;52.122;5.406;2023-06-01T11:00:46;4.32;;;2.20;;
79539;SDS011;68991;52.122;5.406;2023-06-01T11:03:14;3.22;;;2.00;;
79539;SDS011;68991;52.122;5.406;2023-06-01T11:13:19;3.78;;;2.13;;
79539;SDS011;68991;52.122;5.406;2023-06-01T11:18:48;4.78;;;1.95;;
79539;SDS011;68991;52.122;5.406;2023-06-01T11:24:05;5.43;;;2.40;;
79539;SDS011;68991;52.122;5.406;2023-06-01T11:29:12;3.58;;;1.92;;
79539;SDS011;68991;52.122;5.406;2023-06-01T11:31:53;4.35;;;2.40;;
79539;SDS011;68991;52.122;5.406;2023-06-01T11:34:40;4.72;;;2.20;;
79539;SDS011;68991;52.122;5.406;2023-06-01T11:37:14;5.00;;;2.10;;
79539;SDS011;68991;52.122;5.406;2023-06-01T11:39:42;4.05;;;2.33;;
79539;SDS011;68991;52.122;5.406;2023-06-01T11:42:09;4.15;;;1.83;;
79539;SDS011;68991;52.122;5.406;2023-06-01T11:44:38;3.25;;;2.08;;
79539;SDS011;68991;52.122;5.406;2023-06-01T11:47:07;4.03;;;2.28;;
79539;SDS011;68991;52.122;5.406;2023-06-01T11:49:41;5.15;;;2.28;;
79539;SDS011;68991;52.122;5.406;2023-06-01T11:52:11;3.67;;;2.25;;
79539;SDS011;68991;52.122;5.406;2023-06-01T11:54:38;3.53;;;2.45;;
79539;SDS011;68991;52.122;5.406;2023-06-01T11:57:05;4.68;;;1.98;;
79539;SDS011;68991;52.122;5.406;2023-06-01T11:59:43;5.80;;;2.20;;
79539;SDS011;68991;52.122;5.406;2023-06-01T12:02:21;3.85;;;2.05;;
79539;SDS011;68991;52.122;5.406;2023-06-01T12:05:00;3.42;;;1.90;;
79539;SDS011;68991;52.122;5.406;2023-06-01T12:10:17;5.15;;;1.75;;
79539;SDS011;68991;52.122;5.406;2023-06-01T12:12:46;3.55;;;2.08;;
79539;SDS011;68991;52.122;5.406;2023-06-01T12:15:13;3.72;;;1.92;;
79539;SDS011;68991;52.122;5.406;2023-06-01T12:17:48;4.35;;;1.83;;
79539;SDS011;68991;52.122;5.406;2023-06-01T12:20:40;3.75;;;1.80;;
79539;SDS011;68991;52.122;5.406;2023-06-01T12:23:12;4.30;;;1.90;;
79539;SDS011;68991;52.122;5.406;2023-06-01T12:25:52;2.83;;;1.60;;
79539;SDS011;68991;52.122;5.406;2023-06-01T12:28:21;3.13;;;1.98;;
79539;SDS011;68991;52.122;5.406;2023-06-01T12:30:49;4.97;;;2.30;;
79539;SDS011;68991;52.122;5.406;2023-06-01T12:33:31;6.07;;;1.80;;
79539;SDS011;68991;52.122;5.406;2023-06-01T12:36:02;2.65;;;1.73;;
79539;SDS011;68991;52.122;5.406;2023-06-01T12:38:36;2.95;;;1.63;;
79539;SDS011;68991;52.122;5.406;2023-06-01T12:41:16;4.18;;;1.75;;
79539;SDS011;68991;52.122;5.406;2023-06-01T12:43:44;4.65;;;1.90;;
79539;SDS011;68991;52.122;5.406;2023-06-01T12:46:18;3.92;;;1.70;;
79539;SDS011;68991;52.122;5.406;2023-06-01T12:48:49;3.55;;;1.60;;
79539;SDS011;68991;52.122;5.406;2023-06-01T12:51:17;3.03;;;1.55;;
79539;SDS011;68991;52.122;5.406;2023-06-01T12:53:43;5.38;;;1.80;;
79539;SDS011;68991;52.122;5.406;2023-06-01T12:56:10;2.92;;;1.80;;
79539;SDS011;68991;52.122;5.406;2023-06-01T12:58:38;3.67;;;1.65;;
79539;SDS011;68991;52.122;5.406;2023-06-01T13:01:06;5.15;;;1.98;;
79539;SDS011;68991;52.122;5.406;2023-06-01T13:03:32;5.00;;;1.95;;
79539;SDS011;68991;52.122;5.406;2023-06-01T13:05:59;2.50;;;1.70;;
79539;SDS011;68991;52.122;5.406;2023-06-01T13:08:26;3.13;;;1.50;;
79539;SDS011;68991;52.122;5.406;2023-06-01T13:10:53;3.65;;;1.90;;
79539;SDS011;68991;52.122;5.406;2023-06-01T13:13:20;2.80;;;1.58;;
79539;SDS011;68991;52.122;5.406;2023-06-01T13:15:47;4.32;;;1.70;;
79539;SDS011;68991;52.122;5.406;2023-06-01T13:18:14;2.95;;;1.60;;
79539;SDS011;68991;52.122;5.406;2023-06-01T13:20:40;2.67;;;1.67;;
79539;SDS011;68991;52.122;5.406;2023-06-01T13:23:07;2.60;;;1.65;;
79539;SDS011;68991;52.122;5.406;2023-06-01T13:25:34;2.70;;;1.70;;
79539;SDS011;68991;52.122;5.406;2023-06-01T13:28:01;4.97;;;2.05;;
79539;SDS011;68991;52.122;5.406;2023-06-01T13:30:28;2.83;;;2.00;;
79539;SDS011;68991;52.122;5.406;2023-06-01T13:32:58;2.55;;;1.60;;
79539;SDS011;68991;52.122;5.406;2023-06-01T13:35:25;3.10;;;1.67;;
79539;SDS011;68991;52.122;5.406;2023-06-01T13:37:52;2.97;;;1.90;;
79539;SDS011;68991;52.122;5.406;2023-06-01T13:40:18;2.92;;;1.60;;
79539;SDS011;68991;52.122;5.406;2023-06-01T13:42:49;3.58;;;1.67;;
79539;SDS011;68991;52.122;5.406;2023-06-01T13:45:21;2.97;;;1.60;;
79539;SDS011;68991;52.122;5.406;2023-06-01T13:47:48;2.50;;;1.42;;
79539;SDS011;68991;52.122;5.406;2023-06-01T13:50:16;3.25;;;1.73;;
79539;SDS011;68991;52.122;5.406;2023-06-01T13:52:43;2.55;;;1.60;;
79539;SDS011;68991;52.122;5.406;2023-06-01T13:55:10;3.22;;;2.28;;
79539;SDS011;68991;52.122;5.406;2023-06-01T13:57:36;2.67;;;1.50;;
79539;SDS011;68991;52.122;5.406;2023-06-01T14:00:05;3.45;;;1.83;;
79539;SDS011;68991;52.122;5.406;2023-06-01T14:02:32;2.95;;;1.67;;
79539;SDS011;68991;52.122;5.406;2023-06-01T14:04:59;3.10;;;2.00;;
79539;SDS011;68991;52.122;5.406;2023-06-01T14:07:33;3.58;;;1.90;;
79539;SDS011;68991;52.122;5.406;2023-06-01T14:09:59;2.78;;;1.70;;
79539;SDS011;68991;52.122;5.406;2023-06-01T14:12:26;3.08;;;2.08;;
79539;SDS011;68991;52.122;5.406;2023-06-01T14:14:52;3.38;;;1.73;;
79539;SDS011;68991;52.122;5.406;2023-06-01T14:17:19;3.42;;;1.80;;
79539;SDS011;68991;52.122;5.406;2023-06-01T14:19:45;2.65;;;1.90;;
79539;SDS011;68991;52.122;5.406;2023-06-01T14:22:12;3.38;;;1.70;;
79539;SDS011;68991;52.122;5.406;2023-06-01T14:24:41;3.03;;;1.60;;
79539;SDS011;68991;52.122;5.406;2023-06-01T14:27:07;3.58;;;1.80;;
79539;SDS011;68991;52.122;5.406;2023-06-01T14:29:34;2.67;;;1.45;;
79539;SDS011;68991;52.122;5.406;2023-06-01T14:32:00;2.10;;;1.45;;
79539;SDS011;68991;52.122;5.406;2023-06-01T14:34:27;3.83;;;1.63;;
79539;SDS011;68991;52.122;5.406;2023-06-01T14:36:53;3.17;;;1.52;;
79539;SDS011;68991;52.122;5.406;2023-06-01T14:39:20;2.83;;;1.40;;
79539;SDS011;68991;52.122;5.406;2023-06-01T14:41:46;2.72;;;1.52;;
79539;SDS011;68991;52.122;5.406;2023-06-01T14:44:13;3.45;;;1.48;;
79539;SDS011;68991;52.122;5.406;2023-06-01T14:46:39;2.80;;;1.40;;
79539;SDS011;68991;52.122;5.406;2023-06-01T14:49:07;2.28;;;1.45;;
79539;SDS011;68991;52.122;5.406;2023-06-01T14:51:34;4.43;;;1.50;;
79539;SDS011;68991;52.122;5.406;2023-06-01T14:54:00;2.70;;;1.38;;
79539;SDS011;68991;52.122;5.406;2023-06-01T14:56:27;2.85;;;1.20;;
79539;SDS011;68991;52.122;5.406;2023-06-01T14:58:53;3.45;;;1.30;;
79539;SDS011;68991;52.122;5.406;2023-06-01T15:01:20;4.10;;;1.75;;
79539;SDS011;68991;52.122;5.406;2023-06-01T15:03:46;3.75;;;1.55;;
79539;SDS011;68991;52.122;5.406;2023-06-01T15:06:13;3.40;;;1.25;;
79539;SDS011;68991;52.122;5.406;2023-06-01T15:08:40;3.35;;;1.98;;
79539;SDS011;68991;52.122;5.406;2023-06-01T15:11:06;3.20;;;1.30;;
79539;SDS011;68991;52.122;5.406;2023-06-01T15:13:33;15.38;;;6.70;;
79539;SDS011;68991;52.122;5.406;2023-06-01T15:15:59;23.48;;;13.10;;
79539;SDS011;68991;52.122;5.406;2023-06-01T15:18:26;25.38;;;15.60;;
79539;SDS011;68991;52.122;5.406;2023-06-01T15:20:52;23.40;;;14.85;;
79539;SDS011;68991;52.122;5.406;2023-06-01T15:23:18;24.90;;;16.10;;
79539;SDS011;68991;52.122;5.406;2023-06-01T15:25:45;25.92;;;15.57;;
79539;SDS011;68991;52.122;5.406;2023-06-01T15:28:12;23.75;;;14.60;;
79539;SDS011;68991;52.122;5.406;2023-06-01T15:30:38;20.80;;;13.82;;
79539;SDS011;68991;52.122;5.406;2023-06-01T15:33:05;22.73;;;14.25;;
79539;SDS011;68991;52.122;5.406;2023-06-01T15:35:34;21.63;;;14.48;;
79539;SDS011;68991;52.122;5.406;2023-06-01T15:38:01;20.33;;;14.75;;